createdAt,value
2022-10-29T00:00:55.121Z,6.20
2022-10-29T00:03:22.004Z,4.90
2022-10-29T00:05:58.456Z,4.90
2022-10-29T00:08:24.921Z,4.88
2022-10-29T00:10:51.355Z,4.10
2022-10-29T00:13:17.697Z,4.68
2022-10-29T00:15:43.965Z,3.92
2022-10-29T00:18:10.234Z,4.70
2022-10-29T00:20:36.556Z,4.25
2022-10-29T00:23:02.822Z,4.18
2022-10-29T00:25:29.083Z,4.85
2022-10-29T00:27:55.999Z,4.68
2022-10-29T00:30:22.257Z,3.63
2022-10-29T00:32:48.593Z,3.83
2022-10-29T00:35:14.839Z,3.88
2022-10-29T00:37:41.083Z,3.75
2022-10-29T00:40:07.694Z,4.43
2022-10-29T00:42:33.954Z,4.18
2022-10-29T00:45:00.253Z,4.78
2022-10-29T00:47:29.013Z,5.28
2022-10-29T00:50:00.520Z,4.93
2022-10-29T00:52:28.626Z,4.35
2022-10-29T00:54:55.229Z,4.50
2022-10-29T00:57:23.958Z,4.32
2022-10-29T00:59:50.711Z,4.40
2022-10-29T01:02:17.179Z,4.40
2022-10-29T01:04:43.816Z,3.92
2022-10-29T01:07:11.050Z,4.38
2022-10-29T01:09:37.483Z,4.55
2022-10-29T01:12:03.767Z,4.05
2022-10-29T01:14:48.878Z,4.00
2022-10-29T01:17:24.088Z,3.83
2022-10-29T01:22:23.656Z,3.40
2022-10-29T01:24:49.890Z,2.58
2022-10-29T01:27:16.121Z,3.25
2022-10-29T01:30:11.604Z,3.20
2022-10-29T01:32:40.650Z,3.10
2022-10-29T01:35:16.621Z,2.95
2022-10-29T01:37:42.871Z,3.22
2022-10-29T01:40:15.201Z,3.10
2022-10-29T01:42:46.690Z,2.95
2022-10-29T01:45:18.004Z,2.80
2022-10-29T01:47:47.336Z,2.70
2022-10-29T01:50:16.685Z,3.30
2022-10-29T01:52:43.522Z,3.15
2022-10-29T01:55:09.799Z,2.92
2022-10-29T01:57:37.644Z,2.53
2022-10-29T02:00:06.709Z,2.42
2022-10-29T02:02:32.929Z,2.83
2022-10-29T02:05:02.167Z,2.45
2022-10-29T02:07:34.368Z,2.63
2022-10-29T02:10:23.681Z,2.95
2022-10-29T02:12:51.400Z,3.03
2022-10-29T02:15:23.914Z,2.97
2022-10-29T02:17:50.349Z,3.05
2022-10-29T02:20:17.297Z,3.15
2022-10-29T02:22:43.894Z,3.40
2022-10-29T02:25:10.652Z,3.28
2022-10-29T02:27:37.101Z,3.28
2022-10-29T02:30:03.910Z,3.25
2022-10-29T02:32:32.473Z,3.28
2022-10-29T02:34:59.659Z,2.92
2022-10-29T02:37:25.903Z,3.75
2022-10-29T02:39:52.168Z,2.75
2022-10-29T02:42:18.463Z,2.47
2022-10-29T02:44:44.749Z,2.72
2022-10-29T02:47:11.018Z,3.03
2022-10-29T02:49:37.290Z,2.88
2022-10-29T02:52:03.686Z,3.40
2022-10-29T02:54:29.975Z,3.20
2022-10-29T02:56:56.305Z,2.22
2022-10-29T02:59:22.572Z,2.85
2022-10-29T03:01:48.988Z,3.00
2022-10-29T03:04:15.361Z,3.15
2022-10-29T03:06:41.630Z,2.88
2022-10-29T03:09:07.925Z,2.80
2022-10-29T03:11:34.260Z,3.67
2022-10-29T03:14:00.574Z,2.97
2022-10-29T03:16:26.855Z,3.30
2022-10-29T03:18:53.124Z,2.85
2022-10-29T03:21:19.393Z,3.97
2022-10-29T03:23:45.649Z,3.38
2022-10-29T03:26:11.893Z,3.35
2022-10-29T03:28:38.248Z,3.47
2022-10-29T03:31:04.674Z,3.90
2022-10-29T03:33:30.949Z,2.75
2022-10-29T03:35:57.653Z,3.40
2022-10-29T03:38:24.189Z,3.67
2022-10-29T03:40:50.715Z,3.88
2022-10-29T03:43:17.076Z,3.38
2022-10-29T03:45:43.340Z,4.28
2022-10-29T03:48:09.987Z,3.80
2022-10-29T03:50:36.250Z,4.72
2022-10-29T03:53:02.529Z,3.45
2022-10-29T03:55:29.193Z,3.65
2022-10-29T03:57:56.146Z,4.47
2022-10-29T04:00:22.701Z,4.65
2022-10-29T04:02:48.984Z,3.60
2022-10-29T04:05:15.277Z,4.15
2022-10-29T04:07:41.538Z,4.18
2022-10-29T04:10:07.985Z,3.40
2022-10-29T04:12:34.235Z,3.65
2022-10-29T04:15:00.497Z,3.50
2022-10-29T04:17:26.810Z,4.57
2022-10-29T04:19:53.081Z,3.50
2022-10-29T04:30:40.110Z,4.13
2022-10-29T04:33:06.412Z,4.05
2022-10-29T04:35:32.679Z,4.63
2022-10-29T04:37:58.953Z,4.45
2022-10-29T04:40:25.279Z,4.90
2022-10-29T04:42:51.708Z,3.78
2022-10-29T04:45:18.275Z,4.47
2022-10-29T04:47:44.536Z,5.75
2022-10-29T04:50:10.830Z,4.90
2022-10-29T04:52:37.091Z,5.28
2022-10-29T04:55:03.490Z,5.75
2022-10-29T04:57:29.787Z,6.28
2022-10-29T04:59:56.054Z,6.10
2022-10-29T05:02:22.354Z,6.78
2022-10-29T05:04:48.613Z,5.10
2022-10-29T05:07:14.873Z,4.93
2022-10-29T05:09:41.132Z,5.50
2022-10-29T05:12:07.599Z,4.97
2022-10-29T05:14:33.866Z,6.10
2022-10-29T05:17:00.188Z,4.93
2022-10-29T05:19:26.535Z,4.68
2022-10-29T05:21:52.815Z,4.32
2022-10-29T05:24:19.087Z,4.45
2022-10-29T05:26:45.362Z,4.63
2022-10-29T05:29:11.614Z,4.57
2022-10-29T05:31:37.869Z,4.85
2022-10-29T05:34:04.127Z,5.07
2022-10-29T05:36:30.410Z,4.40
2022-10-29T05:38:56.737Z,4.85
2022-10-29T05:41:23.010Z,5.60
2022-10-29T05:43:49.957Z,5.32
2022-10-29T05:46:16.690Z,5.82
2022-10-29T05:48:42.950Z,5.15
2022-10-29T05:51:09.237Z,6.80
2022-10-29T05:53:36.313Z,6.90
2022-10-29T05:56:02.570Z,5.63
2022-10-29T05:58:28.829Z,7.38
2022-10-29T06:00:55.090Z,7.25
2022-10-29T06:03:21.933Z,7.50
2022-10-29T06:05:48.713Z,7.47
2022-10-29T06:08:15.283Z,6.65
2022-10-29T06:10:41.571Z,5.35
2022-10-29T06:13:11.605Z,8.63
2022-10-29T06:15:37.928Z,8.32
2022-10-29T06:18:04.219Z,7.90
2022-10-29T06:20:30.476Z,8.45
2022-10-29T06:22:58.114Z,8.27
2022-10-29T06:25:25.182Z,8.70
2022-10-29T06:28:19.011Z,9.38
2022-10-29T06:30:49.261Z,9.18
2022-10-29T06:33:16.383Z,9.65
2022-10-29T06:35:42.727Z,9.35
2022-10-29T06:38:12.424Z,8.80
2022-10-29T06:40:39.138Z,10.10
2022-10-29T06:43:07.334Z,8.85
2022-10-29T06:45:33.892Z,6.95
2022-10-29T06:48:00.525Z,7.93
2022-10-29T06:50:26.992Z,7.32
2022-10-29T06:52:54.362Z,8.18
2022-10-29T06:55:20.827Z,8.60
2022-10-29T06:57:47.100Z,9.23
2022-10-29T07:00:13.531Z,8.88
2022-10-29T07:02:39.786Z,9.35
2022-10-29T07:05:06.153Z,8.65
2022-10-29T07:07:32.426Z,9.55
2022-10-29T07:09:58.735Z,8.63
2022-10-29T07:12:25.069Z,9.18
2022-10-29T07:14:51.341Z,8.70
2022-10-29T07:17:17.592Z,9.05
2022-10-29T07:19:43.847Z,9.13
2022-10-29T07:22:10.112Z,8.75
2022-10-29T07:24:36.361Z,10.10
2022-10-29T07:27:02.663Z,10.32
2022-10-29T07:29:28.914Z,10.23
2022-10-29T07:31:55.168Z,9.48
2022-10-29T07:34:21.422Z,9.88
2022-10-29T07:36:47.699Z,10.35
2022-10-29T07:39:13.977Z,11.52
2022-10-29T07:41:40.227Z,9.75
2022-10-29T07:44:06.550Z,9.85
2022-10-29T07:46:32.855Z,8.93
2022-10-29T07:48:59.902Z,10.25
2022-10-29T07:51:26.177Z,10.00
2022-10-29T07:53:52.436Z,10.05
2022-10-29T07:56:18.689Z,9.77
2022-10-29T07:58:44.952Z,8.77
2022-10-29T08:01:11.386Z,9.50
2022-10-29T08:03:37.710Z,10.65
2022-10-29T08:06:04.126Z,11.00
2022-10-29T08:08:30.936Z,10.95
2022-10-29T08:11:03.866Z,10.77
2022-10-29T08:13:30.438Z,12.00
2022-10-29T08:15:56.700Z,10.50
2022-10-29T08:18:23.115Z,10.45
2022-10-29T08:20:49.385Z,10.30
2022-10-29T08:23:15.824Z,11.88
2022-10-29T08:25:42.821Z,12.93
2022-10-29T08:28:10.826Z,10.80
2022-10-29T08:30:37.493Z,12.57
2022-10-29T08:33:04.546Z,10.73
2022-10-29T08:35:31.314Z,12.75
2022-10-29T08:37:57.689Z,10.88
2022-10-29T08:40:28.910Z,11.65
2022-10-29T08:42:55.558Z,11.55
2022-10-29T08:45:29.769Z,12.35
2022-10-29T08:48:07.808Z,12.57
2022-10-29T08:50:40.982Z,13.15
2022-10-29T08:53:23.415Z,11.77
2022-10-29T08:55:50.245Z,10.95
2022-10-29T08:58:35.416Z,10.63
2022-10-29T09:01:01.810Z,12.05
2022-10-29T09:03:29.576Z,12.82
2022-10-29T09:06:10.993Z,12.10
2022-10-29T09:08:52.626Z,11.60
2022-10-29T09:11:28.366Z,11.60
2022-10-29T09:14:12.762Z,12.02
2022-10-29T09:16:44.023Z,11.07
2022-10-29T09:19:10.975Z,10.45
2022-10-29T09:21:40.033Z,10.50
2022-10-29T09:24:21.584Z,10.75
2022-10-29T09:26:56.944Z,9.73
2022-10-29T09:29:44.276Z,11.43
2022-10-29T09:32:17.345Z,10.65
2022-10-29T09:34:51.438Z,10.23
2022-10-29T09:37:20.023Z,8.95
2022-10-29T09:39:47.830Z,10.18
2022-10-29T09:42:21.465Z,9.73
2022-10-29T09:44:52.923Z,10.02
2022-10-29T09:47:28.393Z,9.98
2022-10-29T09:49:55.570Z,9.15
2022-10-29T09:52:27.193Z,9.70
2022-10-29T09:54:54.446Z,9.82
2022-10-29T09:57:24.772Z,9.82
2022-10-29T09:59:55.919Z,10.13
2022-10-29T10:02:25.211Z,8.77
2022-10-29T10:04:54.201Z,10.30
2022-10-29T10:07:20.780Z,10.48
2022-10-29T10:09:57.226Z,10.80
2022-10-29T10:12:43.747Z,9.38
2022-10-29T10:15:18.068Z,8.77
2022-10-29T10:17:53.716Z,10.00
2022-10-29T10:20:35.122Z,10.02
2022-10-29T10:23:01.833Z,8.15
2022-10-29T10:25:38.096Z,8.82
2022-10-29T10:28:14.861Z,7.82
2022-10-29T10:30:43.029Z,8.50
2022-10-29T10:35:54.208Z,9.27
2022-10-29T10:38:21.432Z,7.65
2022-10-29T10:41:00.997Z,8.48
2022-10-29T10:43:27.522Z,6.35
2022-10-29T10:45:58.001Z,6.28
2022-10-29T10:48:30.976Z,6.85
2022-10-29T10:51:10.241Z,6.00
2022-10-29T10:53:39.426Z,5.40
2022-10-29T10:56:06.369Z,6.55
2022-10-29T10:58:39.762Z,5.05
2022-10-29T11:01:19.378Z,4.90
2022-10-29T11:03:47.000Z,5.03
2022-10-29T11:06:15.980Z,4.50
2022-10-29T11:08:45.197Z,4.82
2022-10-29T11:11:11.501Z,5.20
2022-10-29T11:13:39.362Z,4.65
2022-10-29T11:16:05.786Z,6.18
2022-10-29T11:18:34.818Z,5.82
2022-10-29T11:21:17.031Z,4.35
2022-10-29T11:23:48.443Z,9.00
2022-10-29T11:26:17.522Z,8.60
2022-10-29T11:29:02.401Z,4.75
2022-10-29T11:31:42.888Z,4.65
2022-10-29T11:34:14.357Z,4.07
2022-10-29T11:36:43.088Z,4.18
2022-10-29T11:39:15.320Z,6.93
2022-10-29T11:41:41.837Z,4.53
2022-10-29T11:44:11.518Z,4.47
2022-10-29T11:46:42.498Z,4.65
2022-10-29T11:49:14.798Z,4.10
2022-10-29T11:51:55.789Z,4.82
2022-10-29T11:54:22.200Z,4.50
2022-10-29T11:56:56.781Z,4.18
2022-10-29T11:59:43.329Z,4.10
2022-10-29T12:02:15.633Z,4.22
2022-10-29T12:05:02.247Z,4.07
2022-10-29T12:07:37.434Z,3.63
2022-10-29T12:12:59.181Z,6.60
2022-10-29T12:15:29.271Z,6.32
2022-10-29T12:18:03.886Z,5.03
2022-10-29T12:20:36.032Z,5.57
2022-10-29T12:23:12.022Z,3.28
2022-10-29T12:25:40.973Z,6.40
2022-10-29T12:28:18.950Z,3.58
2022-10-29T12:30:49.368Z,4.53
2022-10-29T12:33:19.442Z,4.80
2022-10-29T12:35:59.473Z,3.70
2022-10-29T12:38:40.926Z,4.70
2022-10-29T12:41:10.253Z,3.75
2022-10-29T12:43:38.136Z,4.18
2022-10-29T12:46:19.634Z,3.17
2022-10-29T12:49:06.054Z,4.07
2022-10-29T12:51:37.735Z,4.00
2022-10-29T12:54:06.787Z,4.25
2022-10-29T12:56:33.607Z,3.75
2022-10-29T12:59:19.863Z,3.90
2022-10-29T13:04:34.192Z,3.38
2022-10-29T13:10:10.215Z,3.97
2022-10-29T13:12:54.569Z,3.58
2022-10-29T13:15:21.717Z,3.25
2022-10-29T13:17:49.646Z,3.35
2022-10-29T13:20:22.129Z,3.95
2022-10-29T13:22:58.436Z,4.03
2022-10-29T13:25:27.572Z,4.35
2022-10-29T13:27:53.871Z,3.78
2022-10-29T13:30:27.225Z,3.03
2022-10-29T13:32:54.374Z,3.60
2022-10-29T13:35:21.295Z,3.22
2022-10-29T13:38:03.396Z,3.25
2022-10-29T13:40:32.638Z,3.33
2022-10-29T13:43:03.530Z,3.45
2022-10-29T13:45:32.007Z,3.75
2022-10-29T13:48:03.602Z,3.50
2022-10-29T13:50:29.894Z,4.45
2022-10-29T13:52:58.719Z,3.70
2022-10-29T13:55:25.449Z,3.13
2022-10-29T13:58:06.981Z,3.80
2022-10-29T14:00:35.994Z,3.58
2022-10-29T14:03:04.336Z,4.20
2022-10-29T14:05:53.877Z,3.47
2022-10-29T14:08:22.761Z,3.25
2022-10-29T14:10:51.545Z,3.35
2022-10-29T14:13:35.884Z,3.45
2022-10-29T14:16:07.335Z,3.67
2022-10-29T14:18:36.590Z,3.50
2022-10-29T14:21:04.248Z,3.50
2022-10-29T14:23:31.556Z,3.47
2022-10-29T14:26:00.093Z,3.70
2022-10-29T14:28:27.308Z,3.38
2022-10-29T14:30:59.457Z,3.35
2022-10-29T14:33:27.154Z,3.25
2022-10-29T14:35:55.727Z,4.38
2022-10-29T14:38:23.289Z,3.63
2022-10-29T14:40:49.583Z,2.90
2022-10-29T14:43:19.286Z,3.50
2022-10-29T14:45:45.550Z,3.10
2022-10-29T14:48:16.201Z,3.28
2022-10-29T14:50:49.951Z,3.67
2022-10-29T14:53:31.686Z,3.70
2022-10-29T14:55:58.811Z,2.90
2022-10-29T14:58:29.572Z,4.07
2022-10-29T15:00:58.043Z,3.53
2022-10-29T15:03:26.014Z,3.97
2022-10-29T15:05:52.438Z,3.28
2022-10-29T15:08:24.148Z,3.20
2022-10-29T15:10:52.105Z,3.97
2022-10-29T15:13:22.424Z,3.63
2022-10-29T15:15:54.856Z,3.55
2022-10-29T15:18:21.776Z,3.45
2022-10-29T15:20:48.188Z,3.30
2022-10-29T15:23:19.659Z,3.83
2022-10-29T15:25:47.570Z,3.38
2022-10-29T15:28:15.196Z,3.40
2022-10-29T15:30:41.629Z,3.67
2022-10-29T15:33:13.705Z,3.58
2022-10-29T15:35:46.002Z,3.60
2022-10-29T15:38:34.950Z,3.80
2022-10-29T15:41:36.665Z,3.20
2022-10-29T15:44:02.947Z,4.47
2022-10-29T15:46:43.362Z,3.38
2022-10-29T15:49:15.714Z,4.18
2022-10-29T15:51:42.027Z,4.15
2022-10-29T15:54:10.005Z,3.72
2022-10-29T15:56:36.341Z,4.57
2022-10-29T15:59:02.629Z,3.60
2022-10-29T16:01:29.159Z,3.88
2022-10-29T16:03:55.510Z,3.53
2022-10-29T16:06:21.808Z,4.35
2022-10-29T16:08:50.041Z,4.00
2022-10-29T16:11:19.990Z,3.83
2022-10-29T16:13:51.825Z,3.80
2022-10-29T16:16:22.178Z,4.63
2022-10-29T16:18:52.878Z,4.43
2022-10-29T16:21:20.432Z,3.95
2022-10-29T16:23:47.163Z,4.10
2022-10-29T16:26:15.629Z,3.75
2022-10-29T16:28:43.550Z,4.03
2022-10-29T16:31:30.121Z,4.18
2022-10-29T16:33:58.423Z,4.35
2022-10-29T16:36:25.075Z,4.68
2022-10-29T16:38:51.434Z,4.32
2022-10-29T16:41:19.028Z,4.00
2022-10-29T16:43:45.567Z,3.70
2022-10-29T16:46:12.290Z,4.18
2022-10-29T16:48:38.805Z,3.80
2022-10-29T16:51:05.330Z,4.30
2022-10-29T16:53:31.593Z,4.95
2022-10-29T16:55:57.886Z,5.13
2022-10-29T16:58:24.167Z,3.80
2022-10-29T17:00:50.478Z,3.97
2022-10-29T17:03:17.366Z,4.68
2022-10-29T17:05:44.545Z,3.90
2022-10-29T17:08:11.249Z,4.40
2022-10-29T17:10:38.190Z,4.10
2022-10-29T17:13:06.980Z,3.65
2022-10-29T17:15:33.240Z,4.07
2022-10-29T17:17:59.697Z,4.38
2022-10-29T17:20:26.146Z,4.72
2022-10-29T17:22:52.679Z,5.00
2022-10-29T17:25:18.956Z,4.78
2022-10-29T17:27:45.218Z,5.40
2022-10-29T17:30:11.752Z,5.20
2022-10-29T17:32:38.140Z,5.60
2022-10-29T17:35:04.644Z,5.00
2022-10-29T17:37:30.992Z,5.40
2022-10-29T17:40:00.339Z,4.70
2022-10-29T17:42:30.509Z,6.10
2022-10-29T17:44:56.760Z,4.82
2022-10-29T17:47:23.066Z,5.75
2022-10-29T17:49:49.348Z,4.72
2022-10-29T17:52:16.213Z,4.75
2022-10-29T17:54:42.494Z,3.85
2022-10-29T17:57:08.780Z,4.78
2022-10-29T17:59:35.035Z,5.25
2022-10-29T18:02:01.504Z,5.53
2022-10-29T18:04:27.875Z,4.88
2022-10-29T18:06:55.935Z,8.57
2022-10-29T18:09:22.323Z,6.18
2022-10-29T18:11:49.840Z,4.93
2022-10-29T18:14:16.250Z,5.68
2022-10-29T18:16:42.534Z,5.05
2022-10-29T18:19:08.873Z,5.25
2022-10-29T18:21:35.149Z,5.63
2022-10-29T18:24:01.522Z,5.15
2022-10-29T18:26:30.588Z,6.25
2022-10-29T18:28:57.975Z,5.45
2022-10-29T18:31:27.355Z,7.10
2022-10-29T18:33:54.382Z,5.90
2022-10-29T18:36:20.759Z,5.75
2022-10-29T18:38:51.054Z,4.95
2022-10-29T18:41:17.365Z,5.30
2022-10-29T18:43:43.698Z,5.47
2022-10-29T18:46:10.406Z,5.00
2022-10-29T18:48:37.727Z,5.50
2022-10-29T18:51:07.178Z,5.32
2022-10-29T18:53:33.989Z,5.95
2022-10-29T18:56:00.331Z,5.80
2022-10-29T18:58:26.614Z,5.45
2022-10-29T19:00:52.999Z,5.15
2022-10-29T19:03:19.395Z,4.63
2022-10-29T19:05:45.903Z,5.20
2022-10-29T19:08:12.875Z,5.07
2022-10-29T19:10:40.185Z,5.32
2022-10-29T19:13:06.946Z,5.00
2022-10-29T19:15:33.990Z,4.45
2022-10-29T19:18:00.755Z,4.53
2022-10-29T19:20:27.840Z,4.93
2022-10-29T19:22:55.176Z,5.68
2022-10-29T19:25:22.803Z,4.65
2022-10-29T19:27:49.893Z,5.45
2022-10-29T19:30:16.566Z,4.68
2022-10-29T19:32:42.952Z,4.38
2022-10-29T19:35:09.373Z,4.38
2022-10-29T19:37:35.785Z,4.20
2022-10-29T19:40:02.194Z,4.35
2022-10-29T19:42:28.481Z,4.75
2022-10-29T19:44:56.429Z,5.03
2022-10-29T19:47:22.870Z,4.68
2022-10-29T19:49:49.109Z,5.20
2022-10-29T19:52:15.372Z,5.15
2022-10-29T19:54:41.631Z,4.90
2022-10-29T19:57:07.917Z,4.43
2022-10-29T19:59:34.253Z,5.07
2022-10-29T20:02:00.721Z,5.35
2022-10-29T20:04:27.147Z,5.15
2022-10-29T20:06:53.424Z,5.35
2022-10-29T20:09:19.739Z,4.72
2022-10-29T20:11:45.990Z,5.97
2022-10-29T20:14:12.247Z,4.95
2022-10-29T20:16:39.385Z,4.85
2022-10-29T20:19:05.721Z,5.22
2022-10-29T20:21:31.981Z,5.22
2022-10-29T20:23:58.275Z,5.20
2022-10-29T20:26:24.623Z,5.40
2022-10-29T20:28:50.944Z,5.38
2022-10-29T20:31:17.162Z,5.13
2022-10-29T20:33:48.632Z,4.25
2022-10-29T20:36:14.982Z,5.85
2022-10-29T20:38:41.692Z,5.10
2022-10-29T20:41:09.189Z,5.95
2022-10-29T20:43:35.554Z,4.25
2022-10-29T20:46:02.360Z,5.28
2022-10-29T20:48:29.183Z,5.05
2022-10-29T20:50:55.713Z,4.40
2022-10-29T20:53:22.196Z,4.22
2022-10-29T20:55:51.889Z,5.40
2022-10-29T20:58:18.873Z,5.38
2022-10-29T21:00:45.364Z,5.93
2022-10-29T21:03:15.146Z,5.53
2022-10-29T21:05:41.507Z,5.00
2022-10-29T21:08:08.333Z,4.55
2022-10-29T21:10:34.911Z,5.45
2022-10-29T21:13:01.811Z,4.80
2022-10-29T21:15:28.118Z,4.82
2022-10-29T21:17:54.609Z,5.57
2022-10-29T21:20:21.925Z,5.47
2022-10-29T21:22:48.185Z,5.50
2022-10-29T21:25:14.477Z,6.05
2022-10-29T21:27:40.733Z,6.00
2022-10-29T21:30:07.346Z,5.35
2022-10-29T21:32:33.612Z,4.97
2022-10-29T21:34:59.883Z,5.95
2022-10-29T21:37:26.141Z,6.00
2022-10-29T21:39:52.388Z,5.50
2022-10-29T21:42:18.699Z,5.20
2022-10-29T21:44:44.987Z,5.97
2022-10-29T21:47:11.252Z,5.03
2022-10-29T21:49:37.500Z,5.80
2022-10-29T21:52:03.885Z,5.07
2022-10-29T21:54:30.151Z,4.13
2022-10-29T21:56:56.405Z,4.85
2022-10-29T21:59:22.678Z,4.68
2022-10-29T22:01:49.101Z,6.00
2022-10-29T22:04:15.487Z,5.55
2022-10-29T22:06:41.742Z,5.13
2022-10-29T22:09:09.907Z,5.70
2022-10-29T22:11:36.168Z,4.70
2022-10-29T22:14:02.437Z,5.25
2022-10-29T22:16:28.694Z,5.22
2022-10-29T22:18:55.031Z,5.20
2022-10-29T22:21:22.165Z,4.40
2022-10-29T22:23:57.479Z,5.00
2022-10-29T22:26:27.804Z,4.93
2022-10-29T22:28:54.075Z,4.68
2022-10-29T22:31:20.988Z,5.28
2022-10-29T22:33:47.608Z,5.13
2022-10-29T22:36:32.027Z,5.25
2022-10-29T22:38:59.446Z,4.05
2022-10-29T22:41:26.222Z,4.68
2022-10-29T22:43:52.614Z,5.35
2022-10-29T22:46:19.479Z,6.45
2022-10-29T22:48:45.881Z,4.93
2022-10-29T22:51:12.110Z,4.22
2022-10-29T22:53:38.363Z,5.97
2022-10-29T22:56:05.061Z,4.43
2022-10-29T22:58:31.589Z,4.78
2022-10-29T23:01:11.177Z,5.38
2022-10-29T23:03:38.340Z,5.88
2022-10-29T23:06:05.993Z,5.68
2022-10-29T23:08:32.529Z,5.18
2022-10-29T23:10:59.324Z,5.03
2022-10-29T23:13:25.591Z,4.80
2022-10-29T23:15:52.851Z,5.80
2022-10-29T23:18:19.368Z,5.53
2022-10-29T23:20:45.666Z,5.18
2022-10-29T23:23:12.817Z,5.82
2022-10-29T23:25:42.326Z,6.25
2022-10-29T23:28:09.065Z,5.35
2022-10-29T23:30:35.324Z,5.57
2022-10-29T23:33:01.605Z,5.82
2022-10-29T23:35:27.845Z,6.80
2022-10-29T23:37:54.112Z,5.22
2022-10-29T23:40:20.359Z,5.05
2022-10-29T23:42:46.613Z,6.13
2022-10-29T23:45:13.881Z,7.88
2022-10-29T23:47:40.154Z,5.10
2022-10-29T23:50:06.928Z,5.28
2022-10-29T23:52:33.199Z,5.72
2022-10-29T23:54:59.451Z,5.72
2022-10-29T23:57:25.749Z,5.65
2022-10-29T23:59:52.034Z,5.75
